KTCM/TCM METAR and TAF weather

Enter ICAO airport designator
Station Type Date Time Source
KTCM METAR 2019/04/19 08:26 UTC NOAA

KTCM 190826Z AUTO 18003KT 10SM SCT028 BKN120 12/12 A3004 RMK AO2 SLP176 RVRNO VISNO RWY34 CHINO RWY34 $


Station Type Date Time Source
KTCM Decoded METAR 2019/04/19 08:26 UTC NOAA

Tacoma / McChord Air Force Base, WA, United States (KTCM) 47-09N 122-29W 87M
Apr 19, 2019 - 04:26 AM EDT / 2019.04.19 0826 UTC
Wind: from the S (180 degrees) at 3 MPH (3 KT):0
Visibility: 10 mile(s):0
Sky conditions: mostly cloudy
Temperature: 53 F (12 C)
Dew Point: 53 F (12 C)
Relative Humidity: 100%
Pressure (altimeter): 30.04 in. Hg (1017 hPa)
ob: KTCM 190826Z AUTO 18003KT 10SM SCT028 BKN120 12/12 A3004 RMK AO2 SLP176 RVRNO VISNO RWY34 CHINO RWY34
cycle: 8

Station Type Date Time Source
KTCM TAF 2019/04/19 05:06 UTC NOAA

TAF KTCM 190503Z 1905/2011 VRB06KT 8000 -RA BKN010 OVC050 QNH2998INS
BECMG 2000/2001 VRB06KT 8000 -RA BKN030 620609 QNH3001INS
BECMG 2005/2006 VRB06KT 9999 NSW BKN050 610509 QNH3003INS TX15/1905Z TN07/2005Z

Example: see airport list